sensor_id;sensor_type;location;lat;lon;timestamp;temperature;humidity
78788;DHT22;68131;52.508;5.502;2023-07-29T00:01:36;20.30;72.90
78788;DHT22;68131;52.508;5.502;2023-07-29T00:04:07;20.30;72.80
78788;DHT22;68131;52.508;5.502;2023-07-29T00:06:37;20.20;72.80
78788;DHT22;68131;52.508;5.502;2023-07-29T00:09:06;20.20;72.80
78788;DHT22;68131;52.508;5.502;2023-07-29T00:11:38;20.20;72.80
78788;DHT22;68131;52.508;5.502;2023-07-29T00:14:12;20.20;72.70
78788;DHT22;68131;52.508;5.502;2023-07-29T00:16:43;20.20;72.70
78788;DHT22;68131;52.508;5.502;2023-07-29T00:19:13;20.10;72.80
78788;DHT22;68131;52.508;5.502;2023-07-29T00:21:44;20.10;72.70
78788;DHT22;68131;52.508;5.502;2023-07-29T00:24:13;20.10;72.70
78788;DHT22;68131;52.508;5.502;2023-07-29T00:26:47;20.10;72.70
78788;DHT22;68131;52.508;5.502;2023-07-29T00:29:16;20.00;72.70
78788;DHT22;68131;52.508;5.502;2023-07-29T00:31:45;20.00;72.60
78788;DHT22;68131;52.508;5.502;2023-07-29T00:34:15;20.00;72.70
78788;DHT22;68131;52.508;5.502;2023-07-29T00:36:45;20.00;72.60
78788;DHT22;68131;52.508;5.502;2023-07-29T00:39:15;20.00;72.70
78788;DHT22;68131;52.508;5.502;2023-07-29T00:41:49;19.90;72.70
78788;DHT22;68131;52.508;5.502;2023-07-29T00:44:18;19.90;72.70
78788;DHT22;68131;52.508;5.502;2023-07-29T00:46:50;19.90;72.60
78788;DHT22;68131;52.508;5.502;2023-07-29T00:49:21;19.90;72.60
78788;DHT22;68131;52.508;5.502;2023-07-29T00:51:55;19.90;72.60
78788;DHT22;68131;52.508;5.502;2023-07-29T00:54:25;19.80;72.60
78788;DHT22;68131;52.508;5.502;2023-07-29T00:56:57;19.80;72.60
78788;DHT22;68131;52.508;5.502;2023-07-29T00:59:27;19.80;72.60
78788;DHT22;68131;52.508;5.502;2023-07-29T01:01:58;19.80;72.60
78788;DHT22;68131;52.508;5.502;2023-07-29T01:04:27;19.80;72.50
78788;DHT22;68131;52.508;5.502;2023-07-29T01:07:03;19.80;72.50
78788;DHT22;68131;52.508;5.502;2023-07-29T01:09:43;19.80;72.50
78788;DHT22;68131;52.508;5.502;2023-07-29T01:12:22;19.80;72.40
78788;DHT22;68131;52.508;5.502;2023-07-29T01:14:58;19.80;72.40
78788;DHT22;68131;52.508;5.502;2023-07-29T01:17:33;19.80;72.30
78788;DHT22;68131;52.508;5.502;2023-07-29T01:20:08;19.80;72.30
78788;DHT22;68131;52.508;5.502;2023-07-29T01:22:40;19.90;72.30
78788;DHT22;68131;52.508;5.502;2023-07-29T01:25:13;19.90;72.30
78788;DHT22;68131;52.508;5.502;2023-07-29T01:27:44;19.90;72.20
78788;DHT22;68131;52.508;5.502;2023-07-29T01:30:18;19.90;72.20
78788;DHT22;68131;52.508;5.502;2023-07-29T01:32:53;19.90;72.10
78788;DHT22;68131;52.508;5.502;2023-07-29T01:35:27;19.90;72.10
78788;DHT22;68131;52.508;5.502;2023-07-29T01:38:03;19.90;72.20
78788;DHT22;68131;52.508;5.502;2023-07-29T01:40:35;19.90;72.20
78788;DHT22;68131;52.508;5.502;2023-07-29T01:43:08;19.90;72.10
78788;DHT22;68131;52.508;5.502;2023-07-29T01:45:38;19.90;72.00
78788;DHT22;68131;52.508;5.502;2023-07-29T01:48:08;19.90;72.00
78788;DHT22;68131;52.508;5.502;2023-07-29T01:50:37;19.90;72.00
78788;DHT22;68131;52.508;5.502;2023-07-29T01:53:10;19.90;72.00
78788;DHT22;68131;52.508;5.502;2023-07-29T01:55:43;19.90;72.00
78788;DHT22;68131;52.508;5.502;2023-07-29T01:58:13;19.90;71.90
78788;DHT22;68131;52.508;5.502;2023-07-29T02:00:47;19.90;71.90
78788;DHT22;68131;52.508;5.502;2023-07-29T02:03:16;19.90;71.80
78788;DHT22;68131;52.508;5.502;2023-07-29T02:05:45;19.90;71.70
78788;DHT22;68131;52.508;5.502;2023-07-29T02:08:15;19.90;71.70
78788;DHT22;68131;52.508;5.502;2023-07-29T02:10:46;19.90;71.60
78788;DHT22;68131;52.508;5.502;2023-07-29T02:13:16;19.90;71.60
78788;DHT22;68131;52.508;5.502;2023-07-29T02:15:45;19.90;71.70
78788;DHT22;68131;52.508;5.502;2023-07-29T02:18:14;19.90;71.60
78788;DHT22;68131;52.508;5.502;2023-07-29T02:20:44;19.90;71.60
78788;DHT22;68131;52.508;5.502;2023-07-29T02:23:16;19.90;71.50
78788;DHT22;68131;52.508;5.502;2023-07-29T02:25:50;19.90;71.50
78788;DHT22;68131;52.508;5.502;2023-07-29T02:28:19;19.90;71.40
78788;DHT22;68131;52.508;5.502;2023-07-29T02:31:09;19.90;71.30
78788;DHT22;68131;52.508;5.502;2023-07-29T02:33:39;19.90;71.40
78788;DHT22;68131;52.508;5.502;2023-07-29T02:36:08;19.90;71.30
78788;DHT22;68131;52.508;5.502;2023-07-29T02:38:37;19.90;71.30
78788;DHT22;68131;52.508;5.502;2023-07-29T02:41:14;19.90;71.20
78788;DHT22;68131;52.508;5.502;2023-07-29T02:43:43;19.80;71.10
78788;DHT22;68131;52.508;5.502;2023-07-29T02:46:17;19.80;71.10
78788;DHT22;68131;52.508;5.502;2023-07-29T02:48:50;19.80;71.10
78788;DHT22;68131;52.508;5.502;2023-07-29T02:51:19;19.80;71.10
78788;DHT22;68131;52.508;5.502;2023-07-29T02:53:52;19.80;71.10
78788;DHT22;68131;52.508;5.502;2023-07-29T02:56:24;19.80;71.00
78788;DHT22;68131;52.508;5.502;2023-07-29T02:58:53;19.80;71.00
78788;DHT22;68131;52.508;5.502;2023-07-29T03:01:23;19.80;71.10
78788;DHT22;68131;52.508;5.502;2023-07-29T03:03:53;19.80;71.00
78788;DHT22;68131;52.508;5.502;2023-07-29T03:06:23;19.80;71.10
78788;DHT22;68131;52.508;5.502;2023-07-29T03:08:52;19.80;71.10
78788;DHT22;68131;52.508;5.502;2023-07-29T03:11:24;19.70;71.10
78788;DHT22;68131;52.508;5.502;2023-07-29T03:13:57;19.70;71.10
78788;DHT22;68131;52.508;5.502;2023-07-29T03:16:30;19.70;71.30
78788;DHT22;68131;52.508;5.502;2023-07-29T03:19:03;19.60;71.20
78788;DHT22;68131;52.508;5.502;2023-07-29T03:21:35;19.60;71.30
78788;DHT22;68131;52.508;5.502;2023-07-29T03:24:06;19.60;71.40
78788;DHT22;68131;52.508;5.502;2023-07-29T03:26:40;19.60;71.40
78788;DHT22;68131;52.508;5.502;2023-07-29T03:29:09;19.60;71.50
78788;DHT22;68131;52.508;5.502;2023-07-29T03:31:38;19.60;71.50
78788;DHT22;68131;52.508;5.502;2023-07-29T03:34:08;19.60;71.50
78788;DHT22;68131;52.508;5.502;2023-07-29T03:36:40;19.60;71.50
78788;DHT22;68131;52.508;5.502;2023-07-29T03:39:14;19.50;71.60
78788;DHT22;68131;52.508;5.502;2023-07-29T03:41:45;19.50;71.60
78788;DHT22;68131;52.508;5.502;2023-07-29T03:44:15;19.50;71.70
78788;DHT22;68131;52.508;5.502;2023-07-29T03:46:46;19.50;71.70
78788;DHT22;68131;52.508;5.502;2023-07-29T03:49:15;19.50;71.80
78788;DHT22;68131;52.508;5.502;2023-07-29T03:51:47;19.50;71.80
78788;DHT22;68131;52.508;5.502;2023-07-29T03:54:17;19.40;71.80
78788;DHT22;68131;52.508;5.502;2023-07-29T03:56:48;19.50;71.90
78788;DHT22;68131;52.508;5.502;2023-07-29T03:59:18;19.40;71.90
78788;DHT22;68131;52.508;5.502;2023-07-29T04:01:49;19.40;72.00
78788;DHT22;68131;52.508;5.502;2023-07-29T04:04:18;19.40;72.00
78788;DHT22;68131;52.508;5.502;2023-07-29T04:06:47;19.40;72.00
78788;DHT22;68131;52.508;5.502;2023-07-29T04:09:16;19.40;72.00
78788;DHT22;68131;52.508;5.502;2023-07-29T04:11:48;19.40;72.10
78788;DHT22;68131;52.508;5.502;2023-07-29T04:14:17;19.40;72.10
78788;DHT22;68131;52.508;5.502;2023-07-29T04:16:47;19.40;72.10
78788;DHT22;68131;52.508;5.502;2023-07-29T04:19:16;19.40;72.20
78788;DHT22;68131;52.508;5.502;2023-07-29T04:21:45;19.40;72.20
78788;DHT22;68131;52.508;5.502;2023-07-29T04:24:17;19.40;72.20
78788;DHT22;68131;52.508;5.502;2023-07-29T04:26:49;19.40;72.20
78788;DHT22;68131;52.508;5.502;2023-07-29T04:29:18;19.40;72.20
78788;DHT22;68131;52.508;5.502;2023-07-29T04:31:49;19.40;72.20
78788;DHT22;68131;52.508;5.502;2023-07-29T04:34:21;19.30;72.30
78788;DHT22;68131;52.508;5.502;2023-07-29T04:36:51;19.30;72.40
78788;DHT22;68131;52.508;5.502;2023-07-29T04:39:20;19.30;72.40
78788;DHT22;68131;52.508;5.502;2023-07-29T04:41:53;19.30;72.40
78788;DHT22;68131;52.508;5.502;2023-07-29T04:44:23;19.30;72.40
78788;DHT22;68131;52.508;5.502;2023-07-29T04:46:53;19.30;72.40
78788;DHT22;68131;52.508;5.502;2023-07-29T04:49:22;19.30;72.40
78788;DHT22;68131;52.508;5.502;2023-07-29T04:51:56;19.30;72.40
78788;DHT22;68131;52.508;5.502;2023-07-29T04:54:25;19.30;72.40
78788;DHT22;68131;52.508;5.502;2023-07-29T04:56:57;19.40;72.50
78788;DHT22;68131;52.508;5.502;2023-07-29T04:59:27;19.40;72.50
78788;DHT22;68131;52.508;5.502;2023-07-29T05:01:56;19.30;72.50
78788;DHT22;68131;52.508;5.502;2023-07-29T05:04:26;19.40;72.50
78788;DHT22;68131;52.508;5.502;2023-07-29T05:06:55;19.40;72.50
78788;DHT22;68131;52.508;5.502;2023-07-29T05:09:24;19.40;72.50
78788;DHT22;68131;52.508;5.502;2023-07-29T05:11:56;19.40;72.50
78788;DHT22;68131;52.508;5.502;2023-07-29T05:14:26;19.40;72.50
78788;DHT22;68131;52.508;5.502;2023-07-29T05:16:58;19.40;72.50
78788;DHT22;68131;52.508;5.502;2023-07-29T05:19:28;19.50;72.50
78788;DHT22;68131;52.508;5.502;2023-07-29T05:24:44;19.50;72.60
78788;DHT22;68131;52.508;5.502;2023-07-29T05:27:16;19.50;72.60
78788;DHT22;68131;52.508;5.502;2023-07-29T05:29:49;19.50;72.60
78788;DHT22;68131;52.508;5.502;2023-07-29T05:32:18;19.60;72.50
78788;DHT22;68131;52.508;5.502;2023-07-29T05:34:50;19.70;72.60
78788;DHT22;68131;52.508;5.502;2023-07-29T05:37:22;19.90;72.40
78788;DHT22;68131;52.508;5.502;2023-07-29T05:39:51;20.10;72.20
78788;DHT22;68131;52.508;5.502;2023-07-29T05:42:23;20.40;71.80
78788;DHT22;68131;52.508;5.502;2023-07-29T05:44:52;20.50;71.50
78788;DHT22;68131;52.508;5.502;2023-07-29T05:47:21;20.60;71.10
78788;DHT22;68131;52.508;5.502;2023-07-29T05:49:51;20.60;71.10
78788;DHT22;68131;52.508;5.502;2023-07-29T05:52:22;20.70;71.10
78788;DHT22;68131;52.508;5.502;2023-07-29T05:54:53;20.70;70.90
78788;DHT22;68131;52.508;5.502;2023-07-29T05:57:25;20.80;70.90
78788;DHT22;68131;52.508;5.502;2023-07-29T05:59:55;20.80;70.90
78788;DHT22;68131;52.508;5.502;2023-07-29T06:02:25;20.90;70.70
78788;DHT22;68131;52.508;5.502;2023-07-29T06:04:55;21.00;70.60
78788;DHT22;68131;52.508;5.502;2023-07-29T06:07:24;21.10;70.50
78788;DHT22;68131;52.508;5.502;2023-07-29T06:09:56;21.10;70.50
78788;DHT22;68131;52.508;5.502;2023-07-29T06:12:28;21.20;70.40
78788;DHT22;68131;52.508;5.502;2023-07-29T06:14:57;21.30;70.20
78788;DHT22;68131;52.508;5.502;2023-07-29T06:17:26;21.30;70.20
78788;DHT22;68131;52.508;5.502;2023-07-29T06:19:58;21.20;70.20
78788;DHT22;68131;52.508;5.502;2023-07-29T06:22:27;21.20;70.20
78788;DHT22;68131;52.508;5.502;2023-07-29T06:24:56;21.10;70.10
78788;DHT22;68131;52.508;5.502;2023-07-29T06:27:28;21.00;70.30
78788;DHT22;68131;52.508;5.502;2023-07-29T06:30:04;21.00;70.50
78788;DHT22;68131;52.508;5.502;2023-07-29T06:32:36;21.10;70.40
78788;DHT22;68131;52.508;5.502;2023-07-29T06:35:07;21.20;70.20
78788;DHT22;68131;52.508;5.502;2023-07-29T06:37:36;21.40;70.20
78788;DHT22;68131;52.508;5.502;2023-07-29T06:40:07;21.80;70.10
78788;DHT22;68131;52.508;5.502;2023-07-29T06:42:41;22.20;69.00
78788;DHT22;68131;52.508;5.502;2023-07-29T06:45:10;22.50;68.50
78788;DHT22;68131;52.508;5.502;2023-07-29T06:47:42;22.50;68.30
78788;DHT22;68131;52.508;5.502;2023-07-29T06:50:11;22.40;68.00
78788;DHT22;68131;52.508;5.502;2023-07-29T06:52:40;22.30;68.10
78788;DHT22;68131;52.508;5.502;2023-07-29T06:55:13;22.30;68.40
78788;DHT22;68131;52.508;5.502;2023-07-29T06:57:44;22.30;68.60
78788;DHT22;68131;52.508;5.502;2023-07-29T07:00:14;22.30;68.60
78788;DHT22;68131;52.508;5.502;2023-07-29T07:02:43;22.30;68.20
78788;DHT22;68131;52.508;5.502;2023-07-29T07:05:13;22.20;68.10
78788;DHT22;68131;52.508;5.502;2023-07-29T07:07:44;22.20;68.40
78788;DHT22;68131;52.508;5.502;2023-07-29T07:10:14;22.30;68.50
78788;DHT22;68131;52.508;5.502;2023-07-29T07:12:46;22.40;68.40
78788;DHT22;68131;52.508;5.502;2023-07-29T07:15:18;22.50;68.20
78788;DHT22;68131;52.508;5.502;2023-07-29T07:17:50;22.60;68.10
78788;DHT22;68131;52.508;5.502;2023-07-29T07:20:19;22.80;68.00
78788;DHT22;68131;52.508;5.502;2023-07-29T07:22:48;22.90;67.60
78788;DHT22;68131;52.508;5.502;2023-07-29T07:25:18;23.00;67.50
78788;DHT22;68131;52.508;5.502;2023-07-29T07:27:49;23.00;67.10
78788;DHT22;68131;52.508;5.502;2023-07-29T07:30:21;22.80;67.00
78788;DHT22;68131;52.508;5.502;2023-07-29T07:32:52;22.60;67.00
78788;DHT22;68131;52.508;5.502;2023-07-29T07:35:21;22.40;67.40
78788;DHT22;68131;52.508;5.502;2023-07-29T07:37:50;22.30;67.70
78788;DHT22;68131;52.508;5.502;2023-07-29T07:40:19;22.20;68.10
78788;DHT22;68131;52.508;5.502;2023-07-29T07:42:51;22.30;68.20
78788;DHT22;68131;52.508;5.502;2023-07-29T07:45:20;22.50;68.30
78788;DHT22;68131;52.508;5.502;2023-07-29T07:47:51;22.80;67.90
78788;DHT22;68131;52.508;5.502;2023-07-29T07:50:20;23.00;67.40
78788;DHT22;68131;52.508;5.502;2023-07-29T07:52:50;23.10;67.20
78788;DHT22;68131;52.508;5.502;2023-07-29T07:55:19;23.20;67.20
78788;DHT22;68131;52.508;5.502;2023-07-29T07:57:51;23.40;66.70
78788;DHT22;68131;52.508;5.502;2023-07-29T08:00:20;23.60;66.40
78788;DHT22;68131;52.508;5.502;2023-07-29T08:02:49;23.90;66.30
78788;DHT22;68131;52.508;5.502;2023-07-29T08:05:18;24.20;65.70
78788;DHT22;68131;52.508;5.502;2023-07-29T08:07:48;24.30;65.40
78788;DHT22;68131;52.508;5.502;2023-07-29T08:10:17;24.30;65.40
78788;DHT22;68131;52.508;5.502;2023-07-29T08:12:46;24.20;65.70
78788;DHT22;68131;52.508;5.502;2023-07-29T08:15:18;24.10;65.70
78788;DHT22;68131;52.508;5.502;2023-07-29T08:17:47;23.90;65.60
78788;DHT22;68131;52.508;5.502;2023-07-29T08:20:16;23.80;65.90
78788;DHT22;68131;52.508;5.502;2023-07-29T08:22:48;23.80;65.90
78788;DHT22;68131;52.508;5.502;2023-07-29T08:25:17;23.90;65.80
78788;DHT22;68131;52.508;5.502;2023-07-29T08:27:47;24.00;65.60
78788;DHT22;68131;52.508;5.502;2023-07-29T08:30:19;24.10;65.80
78788;DHT22;68131;52.508;5.502;2023-07-29T08:32:48;24.10;65.60
78788;DHT22;68131;52.508;5.502;2023-07-29T08:35:17;24.20;65.60
78788;DHT22;68131;52.508;5.502;2023-07-29T08:37:48;24.30;64.90
78788;DHT22;68131;52.508;5.502;2023-07-29T08:40:17;24.40;64.60
78788;DHT22;68131;52.508;5.502;2023-07-29T08:42:48;24.30;64.70
78788;DHT22;68131;52.508;5.502;2023-07-29T08:45:21;24.20;64.70
78788;DHT22;68131;52.508;5.502;2023-07-29T08:47:55;24.10;64.90
78788;DHT22;68131;52.508;5.502;2023-07-29T08:50:26;24.00;65.20
78788;DHT22;68131;52.508;5.502;2023-07-29T08:52:59;23.80;65.60
78788;DHT22;68131;52.508;5.502;2023-07-29T08:55:29;23.70;66.40
78788;DHT22;68131;52.508;5.502;2023-07-29T08:58:01;23.50;66.80
78788;DHT22;68131;52.508;5.502;2023-07-29T09:00:34;23.20;67.30
78788;DHT22;68131;52.508;5.502;2023-07-29T09:03:03;23.20;67.60
78788;DHT22;68131;52.508;5.502;2023-07-29T09:05:33;23.10;67.50
78788;DHT22;68131;52.508;5.502;2023-07-29T09:08:11;23.00;67.50
78788;DHT22;68131;52.508;5.502;2023-07-29T09:10:40;23.00;67.60
78788;DHT22;68131;52.508;5.502;2023-07-29T09:13:09;23.10;67.70
78788;DHT22;68131;52.508;5.502;2023-07-29T09:15:43;23.10;67.30
78788;DHT22;68131;52.508;5.502;2023-07-29T09:18:16;23.00;67.20
78788;DHT22;68131;52.508;5.502;2023-07-29T09:20:46;23.00;67.50
78788;DHT22;68131;52.508;5.502;2023-07-29T09:23:16;23.20;67.50
78788;DHT22;68131;52.508;5.502;2023-07-29T09:25:46;23.30;67.10
78788;DHT22;68131;52.508;5.502;2023-07-29T09:28:16;23.40;66.60
78788;DHT22;68131;52.508;5.502;2023-07-29T09:30:50;23.50;66.00
78788;DHT22;68131;52.508;5.502;2023-07-29T09:33:25;23.70;65.70
78788;DHT22;68131;52.508;5.502;2023-07-29T09:36:08;23.90;65.40
78788;DHT22;68131;52.508;5.502;2023-07-29T09:38:38;24.00;65.40
78788;DHT22;68131;52.508;5.502;2023-07-29T09:41:07;24.10;65.20
78788;DHT22;68131;52.508;5.502;2023-07-29T09:43:36;24.10;64.40
78788;DHT22;68131;52.508;5.502;2023-07-29T09:46:11;24.00;63.60
78788;DHT22;68131;52.508;5.502;2023-07-29T09:48:40;23.80;63.00
78788;DHT22;68131;52.508;5.502;2023-07-29T09:51:19;23.60;62.90
78788;DHT22;68131;52.508;5.502;2023-07-29T09:53:50;23.50;63.20
78788;DHT22;68131;52.508;5.502;2023-07-29T09:56:25;23.30;63.70
78788;DHT22;68131;52.508;5.502;2023-07-29T09:58:56;23.20;64.10
78788;DHT22;68131;52.508;5.502;2023-07-29T10:01:28;23.10;64.30
78788;DHT22;68131;52.508;5.502;2023-07-29T10:03:58;23.10;64.50
78788;DHT22;68131;52.508;5.502;2023-07-29T10:06:28;23.00;64.70
78788;DHT22;68131;52.508;5.502;2023-07-29T10:08:57;23.00;64.90
78788;DHT22;68131;52.508;5.502;2023-07-29T10:11:28;22.90;64.90
78788;DHT22;68131;52.508;5.502;2023-07-29T10:13:57;23.00;65.10
78788;DHT22;68131;52.508;5.502;2023-07-29T10:16:30;23.00;65.10
78788;DHT22;68131;52.508;5.502;2023-07-29T10:18:59;23.10;65.10
78788;DHT22;68131;52.508;5.502;2023-07-29T10:21:29;23.20;65.00
78788;DHT22;68131;52.508;5.502;2023-07-29T10:24:01;23.40;65.00
78788;DHT22;68131;52.508;5.502;2023-07-29T10:26:32;23.70;64.70
78788;DHT22;68131;52.508;5.502;2023-07-29T10:29:07;23.80;64.20
78788;DHT22;68131;52.508;5.502;2023-07-29T10:31:43;23.80;63.10
78788;DHT22;68131;52.508;5.502;2023-07-29T10:34:13;23.90;63.10
78788;DHT22;68131;52.508;5.502;2023-07-29T10:36:44;23.90;62.60
78788;DHT22;68131;52.508;5.502;2023-07-29T10:39:19;24.00;62.80
78788;DHT22;68131;52.508;5.502;2023-07-29T10:41:58;24.20;62.50
78788;DHT22;68131;52.508;5.502;2023-07-29T10:44:46;24.40;61.60
78788;DHT22;68131;52.508;5.502;2023-07-29T10:47:19;24.50;61.40
78788;DHT22;68131;52.508;5.502;2023-07-29T10:49:51;24.70;61.70
78788;DHT22;68131;52.508;5.502;2023-07-29T10:52:37;24.80;61.10
78788;DHT22;68131;52.508;5.502;2023-07-29T10:55:28;24.80;61.40
78788;DHT22;68131;52.508;5.502;2023-07-29T10:58:11;24.80;61.60
78788;DHT22;68131;52.508;5.502;2023-07-29T11:00:42;24.70;61.80
78788;DHT22;68131;52.508;5.502;2023-07-29T11:03:14;24.80;61.90
78788;DHT22;68131;52.508;5.502;2023-07-29T11:05:46;24.90;61.60
78788;DHT22;68131;52.508;5.502;2023-07-29T11:08:20;25.00;61.70
78788;DHT22;68131;52.508;5.502;2023-07-29T11:11:04;25.10;61.60
78788;DHT22;68131;52.508;5.502;2023-07-29T11:13:34;25.10;61.40
78788;DHT22;68131;52.508;5.502;2023-07-29T11:16:04;25.00;61.10
78788;DHT22;68131;52.508;5.502;2023-07-29T11:18:36;24.90;61.40
78788;DHT22;68131;52.508;5.502;2023-07-29T11:21:05;24.80;61.70
78788;DHT22;68131;52.508;5.502;2023-07-29T11:23:36;24.80;61.90
78788;DHT22;68131;52.508;5.502;2023-07-29T11:26:05;24.70;61.80
78788;DHT22;68131;52.508;5.502;2023-07-29T11:28:42;24.80;61.80
78788;DHT22;68131;52.508;5.502;2023-07-29T11:31:12;24.80;61.40
78788;DHT22;68131;52.508;5.502;2023-07-29T11:33:44;24.70;61.60
78788;DHT22;68131;52.508;5.502;2023-07-29T11:36:19;24.70;61.50
78788;DHT22;68131;52.508;5.502;2023-07-29T11:38:50;24.70;61.50
78788;DHT22;68131;52.508;5.502;2023-07-29T11:41:20;24.70;61.50
78788;DHT22;68131;52.508;5.502;2023-07-29T11:43:50;24.70;61.30
78788;DHT22;68131;52.508;5.502;2023-07-29T11:46:22;24.60;61.40
78788;DHT22;68131;52.508;5.502;2023-07-29T11:48:54;24.60;61.40
78788;DHT22;68131;52.508;5.502;2023-07-29T11:51:27;24.60;61.20
78788;DHT22;68131;52.508;5.502;2023-07-29T11:53:57;24.50;60.90
78788;DHT22;68131;52.508;5.502;2023-07-29T11:56:27;24.40;61.30
78788;DHT22;68131;52.508;5.502;2023-07-29T11:58:56;24.30;61.40
78788;DHT22;68131;52.508;5.502;2023-07-29T12:01:31;24.30;61.60
78788;DHT22;68131;52.508;5.502;2023-07-29T12:04:04;24.30;61.80
78788;DHT22;68131;52.508;5.502;2023-07-29T12:06:33;24.40;62.20
78788;DHT22;68131;52.508;5.502;2023-07-29T12:09:03;24.50;62.10
78788;DHT22;68131;52.508;5.502;2023-07-29T12:11:33;24.60;62.00
78788;DHT22;68131;52.508;5.502;2023-07-29T12:14:03;24.80;61.70
78788;DHT22;68131;52.508;5.502;2023-07-29T12:16:40;24.80;61.60
78788;DHT22;68131;52.508;5.502;2023-07-29T12:19:15;24.90;61.30
78788;DHT22;68131;52.508;5.502;2023-07-29T12:21:44;24.90;61.30
78788;DHT22;68131;52.508;5.502;2023-07-29T12:24:14;24.90;61.30
78788;DHT22;68131;52.508;5.502;2023-07-29T12:26:44;24.90;61.40
78788;DHT22;68131;52.508;5.502;2023-07-29T12:29:14;24.90;61.40
78788;DHT22;68131;52.508;5.502;2023-07-29T12:31:45;24.90;61.30
78788;DHT22;68131;52.508;5.502;2023-07-29T12:34:20;24.80;61.60
78788;DHT22;68131;52.508;5.502;2023-07-29T12:36:51;24.80;61.40
78788;DHT22;68131;52.508;5.502;2023-07-29T12:39:24;24.70;61.60
78788;DHT22;68131;52.508;5.502;2023-07-29T12:41:54;24.60;61.60
78788;DHT22;68131;52.508;5.502;2023-07-29T12:44:25;24.50;61.60
78788;DHT22;68131;52.508;5.502;2023-07-29T12:46:57;24.40;61.80
78788;DHT22;68131;52.508;5.502;2023-07-29T12:49:29;24.40;62.00
78788;DHT22;68131;52.508;5.502;2023-07-29T12:51:59;24.30;62.40
78788;DHT22;68131;52.508;5.502;2023-07-29T12:54:28;24.20;62.90
78788;DHT22;68131;52.508;5.502;2023-07-29T12:56:57;24.10;63.30
78788;DHT22;68131;52.508;5.502;2023-07-29T12:59:27;23.90;63.80
78788;DHT22;68131;52.508;5.502;2023-07-29T13:01:58;23.70;64.70
78788;DHT22;68131;52.508;5.502;2023-07-29T13:04:33;23.50;66.10
78788;DHT22;68131;52.508;5.502;2023-07-29T13:07:02;23.40;66.90
78788;DHT22;68131;52.508;5.502;2023-07-29T13:09:31;23.30;67.10
78788;DHT22;68131;52.508;5.502;2023-07-29T13:12:03;23.30;68.10
78788;DHT22;68131;52.508;5.502;2023-07-29T13:14:32;23.20;68.60
78788;DHT22;68131;52.508;5.502;2023-07-29T13:17:01;23.30;69.30
78788;DHT22;68131;52.508;5.502;2023-07-29T13:19:33;23.30;69.00
78788;DHT22;68131;52.508;5.502;2023-07-29T13:22:03;23.40;69.30
78788;DHT22;68131;52.508;5.502;2023-07-29T13:24:32;23.50;69.20
78788;DHT22;68131;52.508;5.502;2023-07-29T13:27:01;23.60;69.50
78788;DHT22;68131;52.508;5.502;2023-07-29T13:29:30;23.60;69.10
78788;DHT22;68131;52.508;5.502;2023-07-29T13:32:00;23.60;69.10
78788;DHT22;68131;52.508;5.502;2023-07-29T13:34:33;23.60;69.10
78788;DHT22;68131;52.508;5.502;2023-07-29T13:37:02;23.50;68.10
78788;DHT22;68131;52.508;5.502;2023-07-29T13:39:33;23.50;68.40
78788;DHT22;68131;52.508;5.502;2023-07-29T13:42:05;23.40;68.10
78788;DHT22;68131;52.508;5.502;2023-07-29T13:44:34;23.40;68.30
78788;DHT22;68131;52.508;5.502;2023-07-29T13:47:04;23.40;68.30
78788;DHT22;68131;52.508;5.502;2023-07-29T13:49:36;23.40;68.20
78788;DHT22;68131;52.508;5.502;2023-07-29T13:52:06;23.40;67.90
78788;DHT22;68131;52.508;5.502;2023-07-29T13:54:35;23.40;67.70
78788;DHT22;68131;52.508;5.502;2023-07-29T13:57:05;23.40;67.60
78788;DHT22;68131;52.508;5.502;2023-07-29T13:59:38;23.40;67.40
78788;DHT22;68131;52.508;5.502;2023-07-29T14:02:07;23.50;67.50
78788;DHT22;68131;52.508;5.502;2023-07-29T14:04:44;23.60;67.30
78788;DHT22;68131;52.508;5.502;2023-07-29T14:07:14;23.60;67.10
78788;DHT22;68131;52.508;5.502;2023-07-29T14:09:43;23.60;66.90
78788;DHT22;68131;52.508;5.502;2023-07-29T14:12:15;23.60;66.70
78788;DHT22;68131;52.508;5.502;2023-07-29T14:14:44;23.60;66.60
78788;DHT22;68131;52.508;5.502;2023-07-29T14:17:13;23.70;66.30
78788;DHT22;68131;52.508;5.502;2023-07-29T14:19:45;23.70;66.30
78788;DHT22;68131;52.508;5.502;2023-07-29T14:22:16;23.70;66.30
78788;DHT22;68131;52.508;5.502;2023-07-29T14:24:45;23.70;66.20
78788;DHT22;68131;52.508;5.502;2023-07-29T14:27:15;23.80;66.10
78788;DHT22;68131;52.508;5.502;2023-07-29T14:29:45;23.80;66.10
78788;DHT22;68131;52.508;5.502;2023-07-29T14:32:15;23.90;65.80
78788;DHT22;68131;52.508;5.502;2023-07-29T14:34:46;24.00;65.60
78788;DHT22;68131;52.508;5.502;2023-07-29T14:37:15;24.00;65.70
78788;DHT22;68131;52.508;5.502;2023-07-29T14:39:45;24.00;65.30
78788;DHT22;68131;52.508;5.502;2023-07-29T14:42:14;24.00;65.30
78788;DHT22;68131;52.508;5.502;2023-07-29T14:44:43;24.10;65.20
78788;DHT22;68131;52.508;5.502;2023-07-29T14:47:12;24.10;65.30
78788;DHT22;68131;52.508;5.502;2023-07-29T14:49:42;24.20;65.20
78788;DHT22;68131;52.508;5.502;2023-07-29T14:52:13;24.20;64.70
78788;DHT22;68131;52.508;5.502;2023-07-29T14:54:43;24.20;64.80
78788;DHT22;68131;52.508;5.502;2023-07-29T14:57:12;24.10;64.70
78788;DHT22;68131;52.508;5.502;2023-07-29T14:59:41;24.20;64.60
78788;DHT22;68131;52.508;5.502;2023-07-29T15:02:10;24.30;64.10
78788;DHT22;68131;52.508;5.502;2023-07-29T15:04:39;24.30;63.60
78788;DHT22;68131;52.508;5.502;2023-07-29T15:07:09;24.30;63.30
78788;DHT22;68131;52.508;5.502;2023-07-29T15:09:40;24.40;63.60
78788;DHT22;68131;52.508;5.502;2023-07-29T15:12:10;24.40;63.50
78788;DHT22;68131;52.508;5.502;2023-07-29T15:14:39;24.40;63.60
78788;DHT22;68131;52.508;5.502;2023-07-29T15:17:08;24.40;63.60
78788;DHT22;68131;52.508;5.502;2023-07-29T15:19:38;24.40;63.30
78788;DHT22;68131;52.508;5.502;2023-07-29T15:22:08;24.40;63.30
78788;DHT22;68131;52.508;5.502;2023-07-29T15:24:40;24.50;63.50
78788;DHT22;68131;52.508;5.502;2023-07-29T15:27:09;24.50;63.00
78788;DHT22;68131;52.508;5.502;2023-07-29T15:29:39;24.60;62.80
78788;DHT22;68131;52.508;5.502;2023-07-29T15:32:08;24.60;62.80
78788;DHT22;68131;52.508;5.502;2023-07-29T15:34:37;24.70;62.80
78788;DHT22;68131;52.508;5.502;2023-07-29T15:37:06;24.80;62.30
78788;DHT22;68131;52.508;5.502;2023-07-29T15:39:36;24.80;62.20
78788;DHT22;68131;52.508;5.502;2023-07-29T15:42:08;24.80;62.00
78788;DHT22;68131;52.508;5.502;2023-07-29T15:44:37;24.80;61.30
78788;DHT22;68131;52.508;5.502;2023-07-29T15:47:06;24.80;61.30
78788;DHT22;68131;52.508;5.502;2023-07-29T15:49:35;24.70;60.90
78788;DHT22;68131;52.508;5.502;2023-07-29T15:52:05;24.70;60.90
78788;DHT22;68131;52.508;5.502;2023-07-29T15:54:37;24.70;61.00
78788;DHT22;68131;52.508;5.502;2023-07-29T15:57:12;24.70;60.30